createdAt,value
2022-10-03T00:00:18.673Z,102248.94
2022-10-03T00:03:09.619Z,102246.41
2022-10-03T00:06:09.483Z,102241.97
2022-10-03T00:08:48.842Z,102245.78
2022-10-03T00:11:22.384Z,102246.00
2022-10-03T00:14:03.602Z,102250.47
2022-10-03T00:16:59.387Z,102245.00
2022-10-03T00:19:39.067Z,102246.00
2022-10-03T00:22:18.523Z,102239.66
2022-10-03T00:24:48.982Z,102247.69
2022-10-03T00:27:28.186Z,102241.56
2022-10-03T00:30:25.217Z,102253.41
2022-10-03T00:33:03.312Z,102256.19
2022-10-03T00:35:31.612Z,102251.69
2022-10-03T00:38:37.249Z,102261.47
2022-10-03T00:41:26.267Z,102265.00
2022-10-03T00:44:21.598Z,102264.16
2022-10-03T00:46:55.040Z,102267.69
2022-10-03T00:49:37.644Z,102270.47
2022-10-03T00:52:32.881Z,102271.66
2022-10-03T00:55:20.779Z,102263.69
2022-10-03T00:57:54.061Z,102268.97
2022-10-03T01:00:27.934Z,102264.59
2022-10-03T01:03:19.746Z,102267.16
2022-10-03T01:05:47.232Z,102268.13
2022-10-03T01:08:35.331Z,102264.59
2022-10-03T01:11:02.843Z,102265.66
2022-10-03T01:13:46.320Z,102270.25
2022-10-03T01:16:44.858Z,102263.41
2022-10-03T01:19:33.440Z,102267.16
2022-10-03T01:22:30.110Z,102265.56
2022-10-03T01:25:00.789Z,102260.31
2022-10-03T01:28:03.856Z,102261.28
2022-10-03T01:30:42.429Z,102256.16
2022-10-03T01:33:11.670Z,102260.63
2022-10-03T01:36:03.180Z,102264.28
2022-10-03T01:38:48.404Z,102259.28
2022-10-03T01:41:22.604Z,102252.94
2022-10-03T01:44:04.555Z,102255.59
2022-10-03T01:46:54.554Z,102255.72
2022-10-03T01:49:37.093Z,102250.25
2022-10-03T01:52:24.796Z,102253.06
2022-10-03T01:54:58.252Z,102248.00
2022-10-03T01:57:38.317Z,102247.91
2022-10-03T02:00:15.978Z,102246.06
2022-10-03T02:02:43.673Z,102248.63
2022-10-03T02:05:46.357Z,102246.81
2022-10-03T02:08:41.936Z,102246.59
2022-10-03T02:11:11.658Z,102245.50
2022-10-03T02:13:53.526Z,102235.00
2022-10-03T02:16:43.645Z,102238.66
2022-10-03T02:19:22.972Z,102234.06
2022-10-03T02:21:55.508Z,102234.78
2022-10-03T02:24:23.637Z,102234.06
2022-10-03T02:26:58.251Z,102228.56
2022-10-03T02:29:50.953Z,102234.91
2022-10-03T02:32:37.278Z,102231.38
2022-10-03T02:35:35.926Z,102241.34
2022-10-03T02:38:40.387Z,102231.81
2022-10-03T02:41:26.584Z,102239.00
2022-10-03T02:44:19.026Z,102241.78
2022-10-03T02:47:15.545Z,102236.50
2022-10-03T02:50:33.998Z,102227.59
2022-10-03T02:53:49.824Z,102220.53
2022-10-03T02:56:49.991Z,102217.97
2022-10-03T02:59:37.766Z,102211.63
2022-10-03T03:02:24.154Z,102208.09
2022-10-03T03:04:57.829Z,102208.09
2022-10-03T03:07:49.666Z,102213.44
2022-10-03T03:10:38.986Z,102209.78
2022-10-03T03:13:26.284Z,102213.31
2022-10-03T03:16:29.235Z,102211.63
2022-10-03T03:19:17.085Z,102214.31
2022-10-03T03:22:08.660Z,102220.53
2022-10-03T03:24:46.696Z,102216.97
2022-10-03T03:27:44.213Z,102215.16
2022-10-03T03:30:19.496Z,102213.22
2022-10-03T03:33:21.992Z,102205.84
2022-10-03T03:35:49.576Z,102204.88
2022-10-03T03:38:24.489Z,102205.94
2022-10-03T03:41:04.152Z,102198.88
2022-10-03T03:44:00.448Z,102194.38
2022-10-03T03:47:01.956Z,102199.63
2022-10-03T03:49:32.503Z,102183.31
2022-10-03T03:52:06.030Z,102188.69
2022-10-03T03:54:36.319Z,102184.19
2022-10-03T03:57:21.944Z,102181.38
2022-10-03T04:00:07.957Z,102185.78
2022-10-03T04:02:53.660Z,102185.78
2022-10-03T04:05:56.840Z,102185.88
2022-10-03T04:08:37.656Z,102182.56
2022-10-03T04:11:08.114Z,102182.78
2022-10-03T04:13:47.807Z,102178.47
2022-10-03T04:16:55.808Z,102181.38
2022-10-03T04:19:26.282Z,102178.81
2022-10-03T04:22:09.575Z,102188.69
2022-10-03T04:24:54.003Z,102179.03
2022-10-03T04:28:00.969Z,102174.75
2022-10-03T04:30:39.530Z,102172.91
2022-10-03T04:33:44.700Z,102176.56
2022-10-03T04:36:30.412Z,102173.88
2022-10-03T04:39:16.570Z,102167.34
2022-10-03T04:42:08.951Z,102164.34
2022-10-03T04:45:02.467Z,102158.09
2022-10-03T04:48:12.995Z,102160.69
2022-10-03T04:51:13.064Z,102154.16
2022-10-03T04:53:54.840Z,102164.78
2022-10-03T04:56:34.411Z,102154.16
2022-10-03T04:59:36.795Z,102153.38
2022-10-03T05:02:29.891Z,102155.41
2022-10-03T05:05:11.103Z,102152.00
2022-10-03T05:07:42.343Z,102147.84
2022-10-03T05:10:39.086Z,102144.94
2022-10-03T05:13:23.408Z,102151.88
2022-10-03T05:16:01.656Z,102152.84
2022-10-03T05:18:57.796Z,102146.63
2022-10-03T05:21:40.267Z,102147.63
2022-10-03T05:24:34.849Z,102152.97
2022-10-03T05:27:27.672Z,102145.78
2022-10-03T05:30:17.058Z,102144.94
2022-10-03T05:32:53.069Z,102133.47
2022-10-03T05:35:35.576Z,102127.56
2022-10-03T05:38:29.708Z,102122.94
2022-10-03T05:41:42.900Z,102126.25
2022-10-03T05:44:21.305Z,102125.28
2022-10-03T05:47:40.269Z,102115.53
2022-10-03T05:50:55.137Z,102120.06
2022-10-03T05:53:45.003Z,102126.16
2022-10-03T05:56:45.248Z,102118.00
2022-10-03T05:59:29.057Z,102125.06
2022-10-03T06:02:21.681Z,102123.22
2022-10-03T06:05:13.752Z,102124.13
2022-10-03T06:08:15.495Z,102118.63
2022-10-03T06:11:21.816Z,102122.28
2022-10-03T06:14:16.301Z,102115.94
2022-10-03T06:17:11.521Z,102123.88
2022-10-03T06:19:55.623Z,102125.69
2022-10-03T06:23:00.455Z,102117.78
2022-10-03T06:25:53.193Z,102118.84
2022-10-03T06:28:33.063Z,102111.66
2022-10-03T06:31:35.949Z,102116.16
2022-10-03T06:34:17.584Z,102105.44
2022-10-03T06:37:22.623Z,102106.28
2022-10-03T06:40:26.594Z,102101.78
2022-10-03T06:43:44.980Z,102099.84
2022-10-03T06:48:36.831Z,102098.88
2022-10-03T06:51:33.353Z,102101.56
2022-10-03T06:56:08.468Z,102098.78
2022-10-03T06:59:27.483Z,102095.16
2022-10-03T07:02:33.268Z,102102.25
2022-10-03T07:05:54.156Z,102106.63
2022-10-03T07:09:54.047Z,102102.13
2022-10-03T07:12:49.170Z,102099.31
2022-10-03T07:17:22.875Z,102094.69
2022-10-03T07:20:03.769Z,102090.19
2022-10-03T07:23:29.480Z,102094.59
2022-10-03T07:30:56.472Z,102095.84
2022-10-03T07:33:38.963Z,102092.94
2022-10-03T07:36:46.724Z,102088.81
2022-10-03T07:39:47.882Z,102095.34
2022-10-03T07:42:47.006Z,102094.50
2022-10-03T07:45:30.488Z,102103.94
2022-10-03T07:48:17.497Z,102097.34
2022-10-03T07:51:15.998Z,102096.16
2022-10-03T07:54:17.897Z,102103.88
2022-10-03T07:57:13.274Z,102092.75
2022-10-03T08:00:03.302Z,102103.75
2022-10-03T08:03:17.139Z,102100.97
2022-10-03T08:06:16.010Z,102095.47
2022-10-03T08:08:59.488Z,102098.16
2022-10-03T08:11:48.959Z,102091.22
2022-10-03T08:14:28.659Z,102078.41
2022-10-03T08:17:18.047Z,102081.31
2022-10-03T08:20:23.984Z,102081.69
2022-10-03T08:23:13.684Z,102087.59
2022-10-03T08:26:07.653Z,102090.41
2022-10-03T08:28:50.975Z,102085.41
2022-10-03T08:31:37.184Z,102082.09
2022-10-03T08:34:27.099Z,102084.69
2022-10-03T08:36:54.707Z,102083.34
2022-10-03T08:39:37.790Z,102078.31
2022-10-03T08:42:17.836Z,102073.59
2022-10-03T08:45:15.275Z,102068.56
2022-10-03T08:48:13.932Z,102060.13
2022-10-03T08:50:50.251Z,102058.78
2022-10-03T08:53:39.933Z,102051.06
2022-10-03T08:56:49.318Z,102048.50
2022-10-03T09:00:15.584Z,102034.03
2022-10-03T09:06:24.989Z,102024.91
2022-10-03T09:09:11.022Z,102029.63
2022-10-03T09:11:51.285Z,102034.47
2022-10-03T09:14:31.108Z,102031.69
2022-10-03T09:17:02.931Z,102026.16
2022-10-03T09:20:08.252Z,102024.06
2022-10-03T09:23:06.785Z,102012.63
2022-10-03T09:25:53.126Z,102009.78
2022-10-03T09:28:36.333Z,101997.94
2022-10-03T09:31:21.347Z,101993.34
2022-10-03T09:34:09.960Z,101989.69
2022-10-03T09:36:56.553Z,101982.34
2022-10-03T09:39:49.382Z,101979.38
2022-10-03T09:42:24.064Z,101981.66
2022-10-03T09:45:10.575Z,101986.19
2022-10-03T09:48:06.027Z,101979.38
2022-10-03T09:50:54.180Z,101968.47
2022-10-03T09:53:38.581Z,101961.53
2022-10-03T09:56:26.411Z,101959.03
2022-10-03T10:00:04.155Z,101960.06
2022-10-03T10:02:45.436Z,101956.94
2022-10-03T10:05:42.549Z,101942.34
2022-10-03T10:08:33.708Z,101941.06
2022-10-03T10:11:10.500Z,101939.94
2022-10-03T10:14:03.256Z,101931.28
2022-10-03T10:16:32.178Z,101927.00
2022-10-03T10:19:18.271Z,101920.91
2022-10-03T10:25:40.824Z,101931.31
2022-10-03T10:28:47.912Z,101922.22
2022-10-03T10:31:44.110Z,101922.22
2022-10-03T10:34:47.862Z,101916.81
2022-10-03T10:37:37.462Z,101902.81
2022-10-03T10:40:25.049Z,101906.38
2022-10-03T10:43:15.750Z,101904.50
2022-10-03T10:46:19.517Z,101902.22
2022-10-03T10:49:15.307Z,101886.31
2022-10-03T10:52:13.214Z,101888.00
2022-10-03T10:55:14.906Z,101887.00
2022-10-03T10:57:58.014Z,101875.25
2022-10-03T11:00:31.675Z,101870.53
2022-10-03T11:03:30.089Z,101870.53
2022-10-03T11:06:32.249Z,101863.34
2022-10-03T11:09:25.106Z,101862.03
2022-10-03T11:12:14.464Z,101864.75
2022-10-03T11:15:19.774Z,101866.59
2022-10-03T11:18:25.020Z,101853.25
2022-10-03T11:21:31.293Z,101855.25
2022-10-03T11:24:16.468Z,101848.28
2022-10-03T11:27:13.710Z,101847.72
2022-10-03T11:30:08.033Z,101850.41
2022-10-03T11:33:02.017Z,101834.94
2022-10-03T11:35:42.972Z,101826.28
2022-10-03T11:38:26.239Z,101838.78
2022-10-03T11:40:59.979Z,101834.78
2022-10-03T11:44:01.824Z,101827.53
2022-10-03T11:46:31.930Z,101824.28
2022-10-03T11:49:41.404Z,101819.28
2022-10-03T11:52:24.441Z,101808.94
2022-10-03T11:55:18.685Z,101814.19
2022-10-03T11:58:01.411Z,101804.34
2022-10-03T12:00:35.753Z,101797.81
2022-10-03T12:03:27.039Z,101804.19
2022-10-03T12:06:31.745Z,101790.59
2022-10-03T12:08:59.829Z,101802.34
2022-10-03T12:11:44.831Z,101782.66
2022-10-03T12:14:34.438Z,101791.28
2022-10-03T12:17:13.906Z,101773.72
2022-10-03T12:19:51.137Z,101771.09
2022-10-03T12:22:42.918Z,101772.81
2022-10-03T12:25:45.729Z,101763.19
2022-10-03T12:28:52.294Z,101764.44
2022-10-03T12:31:43.200Z,101770.22
2022-10-03T12:34:38.123Z,101763.44
2022-10-03T12:37:37.109Z,101749.25
2022-10-03T12:40:13.031Z,101747.94
2022-10-03T12:43:15.665Z,101749.34
2022-10-03T12:45:54.782Z,101742.13
2022-10-03T12:48:34.839Z,101726.97
2022-10-03T12:51:18.142Z,101729.53
2022-10-03T12:54:01.231Z,101726.84
2022-10-03T12:56:49.518Z,101713.50
2022-10-03T12:59:45.570Z,101712.09
2022-10-03T13:02:26.271Z,101701.06
2022-10-03T13:05:37.971Z,101702.47
2022-10-03T13:08:22.586Z,101703.06
2022-10-03T13:10:57.259Z,101702.25
2022-10-03T13:13:33.769Z,101710.03
2022-10-03T13:16:28.309Z,101706.66
2022-10-03T13:19:06.501Z,101707.50
2022-10-03T13:21:46.190Z,101710.47
2022-10-03T13:24:39.851Z,101698.03
2022-10-03T13:27:22.851Z,101696.19
2022-10-03T13:30:00.447Z,101693.47
2022-10-03T13:32:38.009Z,101688.22
2022-10-03T13:35:44.298Z,101690.50
2022-10-03T13:38:37.451Z,101683.13
2022-10-03T13:41:42.921Z,101679.91
2022-10-03T13:44:24.601Z,101671.56
2022-10-03T13:47:03.223Z,101673.69
2022-10-03T13:49:36.147Z,101662.75
2022-10-03T13:52:23.725Z,101662.78
2022-10-03T13:55:20.921Z,101652.88
2022-10-03T13:58:12.283Z,101640.84
2022-10-03T14:01:11.648Z,101637.84
2022-10-03T14:04:10.154Z,101630.47
2022-10-03T14:06:52.570Z,101629.63
2022-10-03T14:09:34.229Z,101623.66
2022-10-03T14:12:43.999Z,101617.88
2022-10-03T14:15:54.730Z,101609.22
2022-10-03T14:23:16.528Z,101598.44
2022-10-03T14:26:07.517Z,101588.41
2022-10-03T14:28:55.384Z,101572.69
2022-10-03T14:31:59.101Z,101586.44
2022-10-03T14:35:09.037Z,101584.56
2022-10-03T14:37:40.180Z,101572.97
2022-10-03T14:40:33.024Z,101561.63
2022-10-03T14:43:15.010Z,101548.31
2022-10-03T14:45:52.485Z,101549.16
2022-10-03T14:48:46.069Z,101540.78
2022-10-03T14:51:19.889Z,101546.44
2022-10-03T14:54:02.640Z,101539.22
2022-10-03T14:56:35.137Z,101539.81
2022-10-03T14:59:34.506Z,101522.94
2022-10-03T15:02:32.477Z,101524.78
2022-10-03T15:05:17.694Z,101519.69
2022-10-03T15:07:47.202Z,101512.47
2022-10-03T15:10:22.897Z,101507.78
2022-10-03T15:12:55.780Z,101494.47
2022-10-03T15:15:38.639Z,101501.69
2022-10-03T15:18:13.794Z,101488.94
2022-10-03T15:20:43.710Z,101491.19
2022-10-03T15:23:25.942Z,101483.66
2022-10-03T15:25:55.240Z,101473.75
2022-10-03T15:28:29.492Z,101466.84
2022-10-03T15:31:08.550Z,101471.78
2022-10-03T15:33:38.743Z,101463.00
2022-10-03T15:36:09.436Z,101452.53
2022-10-03T15:38:42.296Z,101451.13
2022-10-03T15:41:16.282Z,101438.50
2022-10-03T15:44:07.292Z,101436.38
2022-10-03T15:46:37.083Z,101426.91
2022-10-03T15:49:27.726Z,101415.56
2022-10-03T15:51:58.693Z,101414.16
2022-10-03T15:54:30.296Z,101407.03
2022-10-03T15:57:01.548Z,101404.69
2022-10-03T15:59:35.398Z,101397.19
2022-10-03T16:02:16.425Z,101398.31
2022-10-03T16:04:47.009Z,101398.31
2022-10-03T16:07:35.652Z,101389.53
2022-10-03T16:10:20.561Z,101386.44
2022-10-03T16:13:33.074Z,101380.91
2022-10-03T16:16:35.818Z,101385.44
2022-10-03T16:19:39.505Z,101385.88
2022-10-03T16:22:23.114Z,101384.03
2022-10-03T16:25:14.187Z,101370.72
2022-10-03T16:28:06.733Z,101354.56
2022-10-03T16:31:01.677Z,101348.22
2022-10-03T16:33:35.452Z,101358.25
2022-10-03T16:36:06.416Z,101349.91
2022-10-03T16:38:45.268Z,101335.91
2022-10-03T16:41:24.633Z,101337.88
2022-10-03T16:43:57.561Z,101336.31
2022-10-03T16:46:27.449Z,101310.88
2022-10-03T16:49:17.638Z,101312.00
2022-10-03T16:52:02.820Z,101322.22
2022-10-03T16:54:31.863Z,101321.09
2022-10-03T16:57:03.272Z,101333.56
2022-10-03T16:59:32.607Z,101324.50
2022-10-03T17:02:12.226Z,101314.47
2022-10-03T17:04:43.627Z,101305.56
2022-10-03T17:07:23.781Z,101283.34
2022-10-03T17:09:53.668Z,101281.66
2022-10-03T17:12:37.108Z,101269.19
2022-10-03T17:15:07.646Z,101274.56
2022-10-03T17:17:49.047Z,101273.91
2022-10-03T17:20:35.238Z,101276.59
2022-10-03T17:23:10.575Z,101279.28
2022-10-03T17:26:03.423Z,101272.50
2022-10-03T17:28:39.906Z,101271.63
2022-10-03T17:31:29.616Z,101279.56
2022-10-03T17:34:07.870Z,101273.06
2022-10-03T17:37:12.833Z,101276.88
2022-10-03T17:40:01.609Z,101272.50
2022-10-03T17:42:29.250Z,101278.00
2022-10-03T17:45:27.236Z,101270.38
2022-10-03T17:48:12.476Z,101251.84
2022-10-03T17:50:58.784Z,101259.19
2022-10-03T17:53:30.397Z,101248.00
2022-10-03T17:56:06.177Z,101242.38
2022-10-03T17:58:36.269Z,101257.66
2022-10-03T18:01:13.182Z,101258.66
2022-10-03T18:03:55.413Z,101240.69
2022-10-03T18:06:54.739Z,101230.66
2022-10-03T18:09:30.203Z,101219.75
2022-10-03T18:12:20.957Z,101207.31
2022-10-03T18:15:01.601Z,101211.28
2022-10-03T18:17:54.757Z,101201.09
2022-10-03T18:20:58.309Z,101207.28
2022-10-03T18:23:53.775Z,101211.38
2022-10-03T18:26:28.802Z,101193.28
2022-10-03T18:29:02.163Z,101200.91
2022-10-03T18:31:34.475Z,101201.31
2022-10-03T18:34:13.668Z,101180.50
2022-10-03T18:36:51.174Z,101181.94
2022-10-03T18:39:25.329Z,101173.72
2022-10-03T18:41:58.634Z,101168.34
2022-10-03T18:44:29.025Z,101177.78
2022-10-03T18:47:14.147Z,101169.44
2022-10-03T18:49:47.986Z,101161.06
2022-10-03T18:52:26.034Z,101162.78
2022-10-03T18:55:25.856Z,101148.19
2022-10-03T18:58:06.310Z,101126.66
2022-10-03T19:00:42.684Z,101129.34
2022-10-03T19:03:17.657Z,101122.47
2022-10-03T19:06:02.935Z,101112.53
2022-10-03T19:08:35.443Z,101111.25
2022-10-03T19:11:18.805Z,101089.72
2022-10-03T19:14:05.448Z,101098.50
2022-10-03T19:16:54.605Z,101105.56
2022-10-03T19:19:41.728Z,101084.91
2022-10-03T19:22:13.921Z,101089.13
2022-10-03T19:24:58.538Z,101097.22
2022-10-03T19:27:45.408Z,101102.41
2022-10-03T19:30:20.496Z,101095.34
2022-10-03T19:32:59.519Z,101106.81
2022-10-03T19:35:29.583Z,101097.59
2022-10-03T19:38:04.677Z,101087.53
2022-10-03T19:40:56.497Z,101083.00
2022-10-03T19:43:43.072Z,101076.47
2022-10-03T19:46:31.553Z,101079.16
2022-10-03T19:48:59.084Z,101082.41
2022-10-03T19:51:27.911Z,101076.88
2022-10-03T19:53:57.495Z,101069.50
2022-10-03T19:56:30.991Z,101059.44
2022-10-03T19:59:03.652Z,101055.06
2022-10-03T20:01:46.120Z,101060.28
2022-10-03T20:04:18.999Z,101059.28
2022-10-03T20:07:17.134Z,101060.09
2022-10-03T20:09:57.295Z,101052.91
2022-10-03T20:12:29.160Z,101039.28
2022-10-03T20:15:18.416Z,101042.69
2022-10-03T20:17:46.839Z,101043.34
2022-10-03T20:20:21.029Z,101036.31
2022-10-03T20:22:49.476Z,101036.47
2022-10-03T20:25:32.536Z,101033.63
2022-10-03T20:28:05.067Z,101028.94
2022-10-03T20:30:49.184Z,101026.25
2022-10-03T20:33:28.234Z,101017.69
2022-10-03T20:36:14.046Z,101017.69
2022-10-03T20:39:18.507Z,101002.41
2022-10-03T20:41:59.528Z,101005.78
2022-10-03T20:44:55.257Z,101011.16
2022-10-03T20:47:33.748Z,100983.25
2022-10-03T20:50:18.537Z,100979.03
2022-10-03T20:53:02.534Z,100975.34
2022-10-03T20:55:39.306Z,100970.66
2022-10-03T20:58:54.837Z,100970.66
2022-10-03T21:01:25.707Z,100972.34
2022-10-03T21:04:15.276Z,100968.66
2022-10-03T21:07:18.015Z,100958.06
2022-10-03T21:09:59.141Z,100964.13
2022-10-03T21:12:40.599Z,100974.75
2022-10-03T21:15:17.587Z,100974.44
2022-10-03T21:17:45.951Z,100965.16
2022-10-03T21:20:19.678Z,100965.16
2022-10-03T21:22:51.367Z,100974.78
2022-10-03T21:25:25.469Z,100958.63
2022-10-03T21:27:56.201Z,100960.31
2022-10-03T21:30:52.771Z,100959.06
2022-10-03T21:33:38.445Z,100948.13
2022-10-03T21:36:12.225Z,100940.75
2022-10-03T21:38:43.282Z,100955.88
2022-10-03T21:41:36.318Z,100939.75
2022-10-03T21:44:37.808Z,100951.19
2022-10-03T21:47:21.162Z,100944.81
2022-10-03T21:49:59.786Z,100933.91
2022-10-03T21:52:39.059Z,100932.19
2022-10-03T21:55:06.679Z,100908.97
2022-10-03T21:58:15.447Z,100898.34
2022-10-03T22:00:55.162Z,100894.16
2022-10-03T22:03:30.526Z,100890.03
2022-10-03T22:06:05.972Z,100882.13
2022-10-03T22:08:37.386Z,100876.91
2022-10-03T22:11:23.537Z,100881.75
2022-10-03T22:14:29.416Z,100877.91
2022-10-03T22:17:04.268Z,100878.09
2022-10-03T22:19:45.604Z,100898.59
2022-10-03T22:22:19.217Z,100874.22
2022-10-03T22:25:20.778Z,100871.09
2022-10-03T22:27:56.161Z,100865.91
2022-10-03T22:30:23.875Z,100878.88
2022-10-03T22:33:07.908Z,100861.44
2022-10-03T22:36:02.641Z,100849.97
2022-10-03T22:38:36.332Z,100845.78
2022-10-03T22:41:10.179Z,100829.66
2022-10-03T22:43:38.885Z,100835.69
2022-10-03T22:46:08.151Z,100848.00
2022-10-03T22:48:48.966Z,100847.84
2022-10-03T22:51:21.312Z,100840.75
2022-10-03T22:53:54.060Z,100843.31
2022-10-03T22:56:58.421Z,100836.22
2022-10-03T22:59:32.995Z,100819.06
2022-10-03T23:02:07.565Z,100819.06
2022-10-03T23:04:45.500Z,100819.06
2022-10-03T23:07:26.610Z,100818.06
2022-10-03T23:10:04.737Z,100797.34
2022-10-03T23:12:44.848Z,100778.50
2022-10-03T23:15:17.418Z,100772.97
2022-10-03T23:18:03.332Z,100786.97
2022-10-03T23:20:39.885Z,100788.47
2022-10-03T23:23:17.375Z,100755.16
2022-10-03T23:26:09.683Z,100746.06
2022-10-03T23:29:02.919Z,100748.94
2022-10-03T23:31:50.145Z,100743.38
2022-10-03T23:43:18.785Z,100747.09
2022-10-03T23:46:11.302Z,100729.91
2022-10-03T23:48:53.556Z,100724.19
2022-10-03T23:51:30.366Z,100716.13
2022-10-03T23:54:02.709Z,100705.00
2022-10-03T23:56:46.839Z,100691.72
2022-10-03T23:59:14.467Z,100688.84
